Time;durP1;ratioP1;P1;durP2;ratioP2;P2;SDS_P1;SDS_P2;PMS_P1;PMS_P2;Temp;Humidity;BMP_temperature;BMP_pressure;BME280_temperature;BME280_humidity;BME280_pressure;Samples;Min_cycle;Max_cycle;Signal;HPM_P1;HPM_P2
2023/09/19 00:00:20;;;;;;;2.50;1.10;;;16.40;85.30;;;;;;5072481;28;20028;-78
2023/09/19 00:03:01;;;;;;;2.17;1.33;;;16.40;86.30;;;;;;5055511;28;20115;-80
2023/09/19 00:05:29;;;;;;;3.42;1.25;;;16.50;85.40;;;;;;5069894;28;20135;-81
2023/09/19 00:07:58;;;;;;;2.15;1.30;;;16.50;85.40;;;;;;5073067;28;20024;-82
2023/09/19 00:10:30;;;;;;;1.75;1.08;;;16.50;85.60;;;;;;5082421;28;20052;-80
2023/09/19 00:13:08;;;;;;;3.58;1.20;;;16.50;85.40;;;;;;5079801;28;20016;-81
2023/09/19 00:15:48;;;;;;;2.28;0.90;;;16.50;84.90;;;;;;5065847;28;20029;-81
2023/09/19 00:18:18;;;;;;;2.50;1.30;;;16.50;83.10;;;;;;5076567;28;20461;-79
2023/09/19 00:20:47;;;;;;;1.77;1.08;;;16.50;83.30;;;;;;5057930;28;20097;-79
2023/09/19 00:23:14;;;;;;;3.17;1.10;;;16.60;83.30;;;;;;5071882;28;20528;-80
2023/09/19 00:25:43;;;;;;;1.10;0.75;;;16.60;83.50;;;;;;5071867;28;20085;-80
2023/09/19 00:28:09;;;;;;;3.58;1.35;;;16.60;83.50;;;;;;5072042;28;20043;-79
2023/09/19 00:30:38;;;;;;;1.90;0.90;;;16.60;83.00;;;;;;5071981;28;20025;-79
2023/09/19 00:33:07;;;;;;;3.72;1.05;;;16.60;83.60;;;;;;5072036;28;20074;-80
2023/09/19 00:35:40;;;;;;;3.80;0.98;;;16.60;82.00;;;;;;5072202;28;20032;-80
2023/09/19 00:38:07;;;;;;;1.15;0.80;;;16.60;82.40;;;;;;5073719;28;20016;-80
2023/09/19 00:40:33;;;;;;;3.10;1.20;;;16.60;80.00;;;;;;5071220;28;20485;-81
2023/09/19 00:43:00;;;;;;;1.55;0.90;;;16.50;82.00;;;;;;5072032;28;20024;-80
2023/09/19 00:45:28;;;;;;;2.05;0.93;;;16.50;80.60;;;;;;5072087;28;20051;-81
2023/09/19 00:47:54;;;;;;;3.42;1.30;;;16.60;78.90;;;;;;5072132;28;20021;-81
2023/09/19 00:50:23;;;;;;;2.30;1.25;;;16.70;79.10;;;;;;5071899;28;20032;-81
2023/09/19 00:53:08;;;;;;;4.75;1.13;;;16.60;78.60;;;;;;5073177;28;20047;-81
2023/09/19 00:55:37;;;;;;;2.63;1.20;;;16.60;79.00;;;;;;5055568;28;20032;-81
2023/09/19 00:58:06;;;;;;;4.47;1.20;;;16.70;80.60;;;;;;5072155;28;20017;-81
2023/09/19 01:00:34;;;;;;;5.43;1.30;;;16.60;79.30;;;;;;5055447;28;20032;-78
2023/09/19 01:03:06;;;;;;;2.72;1.08;;;16.70;78.70;;;;;;5071910;28;20111;-79
2023/09/19 01:05:34;;;;;;;1.60;0.93;;;16.60;79.00;;;;;;5071867;28;20060;-82
2023/09/19 01:08:00;;;;;;;3.30;1.17;;;16.70;78.60;;;;;;5055125;28;20035;-78
2023/09/19 01:10:28;;;;;;;2.33;0.77;;;16.70;79.40;;;;;;5071723;28;20481;-81
2023/09/19 01:13:30;;;;;;;1.48;0.93;;;16.70;78.60;;;;;;5071394;28;20069;-80
2023/09/19 01:16:21;;;;;;;1.52;1.05;;;16.70;78.60;;;;;;5071658;28;20072;-78
2023/09/19 01:19:13;;;;;;;2.63;1.02;;;16.70;78.50;;;;;;5071870;28;20032;-81
2023/09/19 01:22:28;;;;;;;1.00;0.95;;;16.60;78.50;;;;;;5073242;28;20044;-77
2023/09/19 01:25:20;;;;;;;2.80;1.05;;;16.60;78.50;;;;;;5068150;28;20051;-79
2023/09/19 01:28:10;;;;;;;2.45;1.05;;;16.60;78.70;;;;;;5033920;28;20033;-82
2023/09/19 01:30:43;;;;;;;1.70;1.00;;;16.60;77.70;;;;;;5033321;28;20112;-78
2023/09/19 01:33:12;;;;;;;1.95;1.10;;;16.50;78.50;;;;;;5033744;28;20115;-77
2023/09/19 01:35:47;;;;;;;1.10;1.00;;;16.60;78.40;;;;;;5051863;28;20036;-77
2023/09/19 01:38:15;;;;;;;3.55;1.10;;;16.50;78.60;;;;;;5054236;28;20069;-79
2023/09/19 01:40:43;;;;;;;1.40;1.00;;;16.60;78.40;;;;;;5053393;28;20055;-79
2023/09/19 01:43:33;;;;;;;2.70;1.00;;;16.50;78.10;;;;;;5037608;28;20025;-79
2023/09/19 01:46:26;;;;;;;3.28;1.13;;;16.50;78.80;;;;;;5054275;28;20041;-78
2023/09/19 01:49:19;;;;;;;3.60;1.20;;;16.60;78.40;;;;;;5037603;28;20054;-81
2023/09/19 01:52:19;;;;;;;2.45;0.93;;;16.60;80.40;;;;;;5054297;28;20051;-80
2023/09/19 01:54:53;;;;;;;2.45;1.23;;;16.80;79.70;;;;;;5037392;28;20060;-80
2023/09/19 01:57:28;;;;;;;2.78;0.80;;;17.00;80.00;;;;;;5054019;28;20477;-80
2023/09/19 02:00:06;;;;;;;1.50;0.60;;;17.10;76.50;;;;;;5073329;28;20063;-79
2023/09/19 02:02:44;;;;;;;1.65;0.90;;;17.10;76.50;;;;;;5075237;28;20024;-79
2023/09/19 02:05:10;;;;;;;2.42;0.88;;;17.10;77.40;;;;;;5071473;28;20507;-79
2023/09/19 02:07:37;;;;;;;1.50;1.13;;;17.20;76.10;;;;;;5058153;28;20039;-79
2023/09/19 02:10:07;;;;;;;2.08;0.90;;;17.20;75.60;;;;;;5074735;28;20021;-80
2023/09/19 02:12:32;;;;;;;2.22;0.80;;;17.30;75.90;;;;;;5074897;28;20413;-80
2023/09/19 02:14:59;;;;;;;1.70;0.98;;;17.50;74.80;;;;;;5074819;28;20060;-80
2023/09/19 02:17:27;;;;;;;2.03;0.90;;;17.40;74.50;;;;;;5074800;28;20151;-79
2023/09/19 02:19:55;;;;;;;1.83;0.82;;;17.40;74.20;;;;;;5074712;28;20021;-78
2023/09/19 02:22:24;;;;;;;2.50;0.82;;;17.20;74.20;;;;;;5074193;28;20021;-79
2023/09/19 02:24:50;;;;;;;2.17;1.05;;;17.20;76.60;;;;;;5074475;28;20556;-78
2023/09/19 02:27:17;;;;;;;1.45;0.77;;;17.20;73.90;;;;;;5074506;28;20046;-78
2023/09/19 02:29:43;;;;;;;1.35;0.65;;;17.20;75.30;;;;;;5057724;28;20036;-79
2023/09/19 02:32:11;;;;;;;1.55;0.93;;;17.20;74.40;;;;;;5074056;28;20042;-79
2023/09/19 02:34:39;;;;;;;2.30;0.90;;;17.20;75.60;;;;;;5074184;28;20017;-78
2023/09/19 02:37:05;;;;;;;2.45;0.70;;;17.30;74.20;;;;;;5074257;28;20031;-78
2023/09/19 02:39:32;;;;;;;4.28;1.08;;;17.40;74.00;;;;;;5074114;28;20112;-79
2023/09/19 02:41:58;;;;;;;4.68;1.00;;;17.40;75.10;;;;;;5057771;28;20032;-81
2023/09/19 02:44:24;;;;;;;2.13;0.77;;;17.50;75.20;;;;;;5074288;28;20123;-80
2023/09/19 02:46:50;;;;;;;1.00;0.80;;;17.50;74.20;;;;;;5073985;28;20107;-80
2023/09/19 02:49:17;;;;;;;1.98;0.98;;;17.50;74.00;;;;;;5074201;28;20025;-80
2023/09/19 02:51:43;;;;;;;1.00;0.70;;;17.50;73.80;;;;;;5073983;28;20108;-79
2023/09/19 02:54:09;;;;;;;1.58;0.85;;;17.40;73.80;;;;;;5074265;28;20059;-80
2023/09/19 02:56:35;;;;;;;1.48;0.93;;;17.40;74.70;;;;;;5074086;28;20024;-79
2023/09/19 02:59:01;;;;;;;2.63;1.17;;;17.30;74.90;;;;;;5074242;28;20435;-79
2023/09/19 03:01:28;;;;;;;2.00;1.00;;;17.40;74.60;;;;;;5075261;28;20031;-79
2023/09/19 03:03:53;;;;;;;2.13;1.08;;;17.30;74.60;;;;;;5073922;28;20078;-79
2023/09/19 03:06:20;;;;;;;2.92;1.10;;;17.40;74.70;;;;;;5073599;28;20037;-80
2023/09/19 03:08:46;;;;;;;2.08;1.00;;;17.40;73.70;;;;;;5073438;28;20024;-80
2023/09/19 03:11:14;;;;;;;1.63;1.08;;;17.30;74.50;;;;;;5073942;28;20035;-80
2023/09/19 03:13:42;;;;;;;1.33;0.98;;;17.40;76.30;;;;;;5073860;28;20032;-80
2023/09/19 03:16:08;;;;;;;2.15;1.05;;;17.40;74.40;;;;;;5073819;28;20094;-80
2023/09/19 03:18:36;;;;;;;1.63;0.98;;;17.30;75.20;;;;;;5073574;28;20045;-80
2023/09/19 03:21:02;;;;;;;2.50;0.93;;;17.30;75.60;;;;;;5073592;28;20028;-81
2023/09/19 03:23:30;;;;;;;1.90;0.90;;;17.40;74.50;;;;;;5073121;28;20047;-81
2023/09/19 03:25:58;;;;;;;1.65;0.98;;;17.20;75.00;;;;;;5073531;28;20028;-79
2023/09/19 03:28:24;;;;;;;4.07;1.10;;;17.10;75.70;;;;;;5056781;28;20050;-80
2023/09/19 03:31:06;;;;;;;2.95;0.90;;;17.00;76.30;;;;;;5072945;28;20025;-80
2023/09/19 03:33:33;;;;;;;1.40;1.10;;;16.90;77.40;;;;;;5073547;28;20024;-79
2023/09/19 03:36:00;;;;;;;2.00;0.95;;;16.90;77.60;;;;;;5074280;28;20533;-79
2023/09/19 03:38:27;;;;;;;1.63;1.00;;;16.90;77.40;;;;;;5073079;28;20052;-79
2023/09/19 03:40:53;;;;;;;2.58;0.90;;;17.00;77.30;;;;;;5072622;28;20037;-79
2023/09/19 03:43:19;;;;;;;1.70;0.80;;;17.00;77.10;;;;;;5072449;28;20090;-79
2023/09/19 03:45:46;;;;;;;2.38;1.20;;;17.00;77.40;;;;;;5073009;28;20025;-79
2023/09/19 03:48:12;;;;;;;2.22;1.00;;;17.00;77.40;;;;;;5073009;28;20119;-78
2023/09/19 03:50:39;;;;;;;1.65;0.80;;;17.10;77.70;;;;;;5073208;28;20078;-80
2023/09/19 03:53:07;;;;;;;2.70;1.23;;;17.10;77.00;;;;;;5072909;28;20040;-80
2023/09/19 03:55:35;;;;;;;2.40;1.23;;;17.00;77.20;;;;;;5056385;28;20074;-80
2023/09/19 03:58:02;;;;;;;1.58;1.25;;;17.00;77.80;;;;;;5072954;28;20021;-79
2023/09/19 04:00:29;;;;;;;2.58;1.00;;;17.00;77.60;;;;;;5073922;28;20485;-80
2023/09/19 04:02:56;;;;;;;3.38;1.10;;;17.10;77.80;;;;;;5062753;28;20050;-81
2023/09/19 04:05:23;;;;;;;1.10;0.88;;;17.10;76.30;;;;;;5056965;28;20044;-79
2023/09/19 04:07:50;;;;;;;2.35;0.90;;;17.10;76.30;;;;;;5056559;28;20469;-79
2023/09/19 04:10:16;;;;;;;1.42;0.82;;;17.10;76.10;;;;;;5072498;28;20025;-79
2023/09/19 04:12:52;;;;;;;0.93;0.60;;;17.20;76.70;;;;;;5073895;28;20469;-79
2023/09/19 04:15:17;;;;;;;1.65;0.88;;;17.20;75.90;;;;;;5071643;28;20166;-79
2023/09/19 04:17:43;;;;;;;4.07;1.00;;;17.20;76.00;;;;;;5073816;28;20100;-80
2023/09/19 04:20:12;;;;;;;3.35;1.00;;;17.10;76.80;;;;;;5072138;28;20372;-80
2023/09/19 04:22:39;;;;;;;2.60;0.73;;;17.10;76.80;;;;;;5072121;28;20358;-80
2023/09/19 04:25:06;;;;;;;1.75;1.10;;;17.00;76.30;;;;;;5072345;28;20429;-78
2023/09/19 04:27:33;;;;;;;3.15;0.80;;;16.80;76.20;;;;;;5073348;28;20086;-79
2023/09/19 04:29:59;;;;;;;1.38;0.77;;;16.60;78.20;;;;;;5055480;28;20029;-77
2023/09/19 04:32:28;;;;;;;3.60;0.90;;;16.50;78.80;;;;;;5072036;28;20020;-79
2023/09/19 04:34:54;;;;;;;2.05;1.25;;;16.30;79.10;;;;;;5069461;28;20107;-78
2023/09/19 04:37:21;;;;;;;3.10;1.13;;;16.20;79.40;;;;;;5073063;28;20048;-79
2023/09/19 04:39:47;;;;;;;0.70;0.60;;;16.20;79.80;;;;;;5053277;28;20707;-78
2023/09/19 04:42:14;;;;;;;1.83;0.85;;;16.20;79.60;;;;;;4970027;28;20050;-77
2023/09/19 04:44:42;;;;;;;1.48;0.77;;;16.20;80.10;;;;;;4970806;28;20394;-78
2023/09/19 04:47:11;;;;;;;2.22;0.90;;;16.10;80.00;;;;;;4970667;28;20475;-78
2023/09/19 04:49:43;;;;;;;1.50;0.70;;;16.10;79.90;;;;;;4970240;28;20023;-82
2023/09/19 04:52:08;;;;;;;2.95;0.93;;;16.10;80.40;;;;;;4972029;28;20069;-81
2023/09/19 04:54:34;;;;;;;2.95;0.98;;;16.00;81.40;;;;;;4954409;28;20027;-78
2023/09/19 04:57:16;;;;;;;0.68;0.63;;;16.00;80.60;;;;;;4970589;28;20058;-82
2023/09/19 04:59:41;;;;;;;1.80;0.95;;;16.00;80.40;;;;;;4954454;28;20490;-80
2023/09/19 05:02:11;;;;;;;2.13;1.15;;;16.00;80.00;;;;;;4974572;28;20030;-78
2023/09/19 05:04:38;;;;;;;3.13;0.80;;;15.90;80.70;;;;;;4955430;28;20031;-80
2023/09/19 05:07:06;;;;;;;0.95;0.70;;;15.90;80.20;;;;;;4970263;28;20039;-79
2023/09/19 05:09:34;;;;;;;2.05;1.00;;;15.80;80.40;;;;;;4953977;28;20034;-78
2023/09/19 05:12:01;;;;;;;2.40;0.65;;;15.80;80.60;;;;;;4969748;28;20479;-79
2023/09/19 05:14:27;;;;;;;1.23;0.80;;;15.80;80.40;;;;;;4954148;28;20067;-78
2023/09/19 05:16:54;;;;;;;0.65;0.60;;;15.90;80.60;;;;;;4971094;28;20084;-80
2023/09/19 05:19:20;;;;;;;0.95;0.80;;;15.90;80.30;;;;;;4970302;28;20049;-77
2023/09/19 05:21:46;;;;;;;1.80;0.90;;;16.00;80.10;;;;;;4969918;28;20015;-79
2023/09/19 05:24:16;;;;;;;2.05;1.05;;;16.00;79.50;;;;;;4969848;28;20055;-79
2023/09/19 05:26:42;;;;;;;2.78;0.95;;;16.00;79.60;;;;;;4954164;28;20100;-78
2023/09/19 05:29:07;;;;;;;3.00;0.90;;;16.00;79.30;;;;;;4969794;28;20519;-78
2023/09/19 05:31:40;;;;;;;1.52;0.80;;;16.00;79.30;;;;;;4953368;28;20065;-81
2023/09/19 05:34:09;;;;;;;0.70;0.52;;;16.10;79.20;;;;;;4969676;28;20030;-79
2023/09/19 05:36:35;;;;;;;1.20;0.80;;;16.20;79.10;;;;;;4969281;28;20482;-79
2023/09/19 05:39:03;;;;;;;2.05;0.98;;;16.30;79.80;;;;;;4969848;28;20103;-79
2023/09/19 05:41:30;;;;;;;1.17;0.90;;;16.30;78.60;;;;;;4953655;28;20039;-78
2023/09/19 05:44:02;;;;;;;1.25;0.70;;;16.40;78.60;;;;;;4971426;28;20023;-81
2023/09/19 05:46:29;;;;;;;1.83;0.95;;;16.50;78.80;;;;;;4970937;28;20038;-79
2023/09/19 05:48:56;;;;;;;1.27;0.77;;;16.60;77.90;;;;;;4954136;28;20092;-80
2023/09/19 05:51:22;;;;;;;2.47;0.95;;;16.50;78.00;;;;;;4970012;28;20085;-79
2023/09/19 05:53:48;;;;;;;1.48;0.70;;;16.60;76.90;;;;;;4969863;28;20022;-80
2023/09/19 05:56:17;;;;;;;1.33;0.70;;;16.60;77.00;;;;;;4969987;28;20042;-79
2023/09/19 05:58:44;;;;;;;2.33;0.95;;;16.70;76.80;;;;;;4969977;28;20383;-78
2023/09/19 06:01:11;;;;;;;2.92;0.82;;;16.70;76.10;;;;;;4968939;28;20122;-79
2023/09/19 06:03:38;;;;;;;2.58;0.70;;;16.70;75.60;;;;;;4953473;28;20027;-80
2023/09/19 06:06:06;;;;;;;2.63;0.82;;;16.70;76.40;;;;;;4969600;28;20487;-77
2023/09/19 06:08:33;;;;;;;1.40;0.90;;;16.60;77.50;;;;;;4969609;28;20057;-78
2023/09/19 06:11:14;;;;;;;1.45;0.50;;;16.60;78.00;;;;;;4969151;28;20027;-77
2023/09/19 06:13:42;;;;;;;1.35;0.68;;;16.60;78.30;;;;;;5048880;28;20480;-77
2023/09/19 06:16:09;;;;;;;3.58;0.80;;;16.60;78.30;;;;;;5054965;28;20060;-77
2023/09/19 06:18:35;;;;;;;3.60;0.90;;;16.60;78.60;;;;;;5070638;28;20107;-78
2023/09/19 06:21:01;;;;;;;2.88;0.65;;;16.60;77.90;;;;;;5071518;28;20540;-78
2023/09/19 06:23:29;;;;;;;1.92;1.10;;;16.60;76.90;;;;;;5074983;28;20386;-79
2023/09/19 06:25:56;;;;;;;2.13;0.90;;;16.70;76.70;;;;;;5075839;28;20037;-78
2023/09/19 06:28:24;;;;;;;3.33;0.70;;;16.60;76.90;;;;;;5074847;28;20480;-78
2023/09/19 06:30:50;;;;;;;2.47;1.00;;;16.60;77.00;;;;;;5075772;28;20061;-79
2023/09/19 06:33:17;;;;;;;3.85;1.05;;;16.70;76.20;;;;;;5058174;28;20021;-77
2023/09/19 06:35:46;;;;;;;0.90;0.73;;;16.70;76.20;;;;;;5076057;28;20033;-76
2023/09/19 06:38:13;;;;;;;2.65;0.95;;;16.70;76.70;;;;;;5074875;28;20020;-77
2023/09/19 06:40:39;;;;;;;1.38;0.90;;;16.70;76.40;;;;;;5073577;28;20132;-78
2023/09/19 06:43:05;;;;;;;1.88;0.75;;;16.70;76.80;;;;;;5075410;28;20039;-76
2023/09/19 06:45:31;;;;;;;1.55;1.00;;;16.70;76.50;;;;;;5074179;28;20024;-73
2023/09/19 06:47:57;;;;;;;2.17;0.80;;;16.90;76.10;;;;;;5073925;28;20035;-75
2023/09/19 06:50:23;;;;;;;4.28;1.35;;;16.90;75.70;;;;;;5074087;28;20099;-75
2023/09/19 06:52:51;;;;;;;2.63;1.10;;;17.00;76.40;;;;;;5075372;28;20505;-78
2023/09/19 06:55:21;;;;;;;1.08;0.77;;;17.00;75.70;;;;;;5075311;28;20058;-78
2023/09/19 06:57:48;;;;;;;1.65;0.73;;;17.00;75.00;;;;;;5075392;28;20124;-79
2023/09/19 07:00:18;;;;;;;1.38;0.75;;;17.00;75.80;;;;;;5075405;28;20032;-80
2023/09/19 07:03:03;;;;;;;2.08;0.90;;;17.00;75.90;;;;;;5000829;28;20104;-77
2023/09/19 07:05:32;;;;;;;1.83;1.03;;;17.00;75.40;;;;;;4955066;28;20043;-78
2023/09/19 07:08:00;;;;;;;2.00;0.93;;;17.00;75.40;;;;;;4972176;28;20023;-80
2023/09/19 07:10:27;;;;;;;3.92;0.90;;;17.00;75.70;;;;;;4958375;28;20540;-81
2023/09/19 07:13:00;;;;;;;4.38;1.30;;;17.10;75.50;;;;;;4952897;28;20031;-76
2023/09/19 07:15:30;;;;;;;6.43;1.50;;;17.10;75.50;;;;;;4953619;28;20030;-76
2023/09/19 07:17:56;;;;;;;1.52;1.05;;;17.20;75.80;;;;;;4953701;29;20020;-76
2023/09/19 07:20:25;;;;;;;3.90;0.90;;;17.40;74.40;;;;;;4953490;28;20100;-75
2023/09/19 07:22:51;;;;;;;2.08;1.05;;;17.50;74.10;;;;;;4952042;28;20027;-76
2023/09/19 07:25:16;;;;;;;2.22;0.80;;;17.50;75.10;;;;;;4953099;29;20035;-77
2023/09/19 07:27:43;;;;;;;1.52;1.02;;;17.50;73.80;;;;;;4953513;28;20042;-77
2023/09/19 07:30:10;;;;;;;4.07;1.10;;;17.50;73.90;;;;;;4953578;28;20019;-77
2023/09/19 07:32:38;;;;;;;1.85;0.77;;;17.30;75.30;;;;;;4953179;28;20027;-77
2023/09/19 07:35:07;;;;;;;2.92;1.10;;;17.10;76.60;;;;;;4953641;29;20085;-77
2023/09/19 07:37:33;;;;;;;7.05;1.27;;;17.00;78.40;;;;;;4953155;28;20073;-77
2023/09/19 07:40:06;;;;;;;3.00;1.58;;;16.90;77.40;;;;;;4952180;29;20027;-77
2023/09/19 07:42:35;;;;;;;3.38;1.48;;;16.70;75.00;;;;;;4952121;29;20058;-77
2023/09/19 07:45:02;;;;;;;1.88;1.42;;;16.60;75.60;;;;;;4959182;29;20083;-77
2023/09/19 07:47:30;;;;;;;2.25;1.10;;;16.40;75.30;;;;;;4966116;28;20027;-76
2023/09/19 07:49:55;;;;;;;1.92;1.52;;;16.30;74.40;;;;;;4952772;29;20081;-77
2023/09/19 07:52:22;;;;;;;3.00;1.50;;;16.00;76.30;;;;;;4960941;28;20479;-76
2023/09/19 07:54:49;;;;;;;2.72;1.30;;;15.70;78.10;;;;;;4972544;28;20387;-76
2023/09/19 07:57:15;;;;;;;2.45;1.40;;;15.50;79.10;;;;;;4972724;28;20030;-76
2023/09/19 07:59:41;;;;;;;2.38;1.48;;;15.40;80.80;;;;;;4971572;28;20344;-76
2023/09/19 08:02:09;;;;;;;3.22;1.50;;;15.30;82.10;;;;;;4971246;28;20184;-77
2023/09/19 08:04:35;;;;;;;4.50;1.65;;;15.40;81.80;;;;;;4971296;28;20164;-77
2023/09/19 08:07:03;;;;;;;3.28;1.42;;;15.60;81.10;;;;;;4971323;28;20038;-75
2023/09/19 08:09:33;;;;;;;3.00;1.27;;;15.80;81.20;;;;;;4971064;28;20031;-75
2023/09/19 08:11:58;;;;;;;4.70;1.83;;;15.90;80.30;;;;;;4971732;28;20023;-77
2023/09/19 08:14:25;;;;;;;1.63;1.20;;;15.80;81.20;;;;;;4951735;28;20482;-77
2023/09/19 08:16:51;;;;;;;2.05;1.30;;;16.00;80.60;;;;;;4951783;28;20027;-75
2023/09/19 08:19:17;;;;;;;2.03;1.17;;;16.10;80.20;;;;;;4951373;28;20118;-74
2023/09/19 08:21:47;;;;;;;1.98;1.25;;;16.30;79.00;;;;;;4951846;28;20127;-75
2023/09/19 08:24:14;;;;;;;5.95;2.47;;;16.50;78.90;;;;;;4951719;29;20126;-77
2023/09/19 08:26:40;;;;;;;3.17;1.80;;;16.80;78.70;;;;;;4952593;28;20043;-76
2023/09/19 08:29:06;;;;;;;2.30;1.10;;;17.10;76.10;;;;;;4951858;28;20573;-79
2023/09/19 08:31:33;;;;;;;1.77;0.90;;;17.30;75.80;;;;;;4952013;28;20050;-79
2023/09/19 08:33:59;;;;;;;2.40;1.23;;;17.50;76.10;;;;;;4951782;28;20411;-78
2023/09/19 08:36:25;;;;;;;2.10;1.10;;;17.60;75.50;;;;;;4951404;28;20019;-79
2023/09/19 08:38:51;;;;;;;1.85;0.95;;;17.70;74.50;;;;;;4951661;28;20073;-78
2023/09/19 08:41:19;;;;;;;2.85;1.30;;;17.60;73.30;;;;;;4951626;28;20118;-80
2023/09/19 08:43:47;;;;;;;2.45;1.08;;;17.70;74.20;;;;;;4935831;28;20025;-78
2023/09/19 08:46:20;;;;;;;2.65;1.50;;;17.80;75.20;;;;;;4951580;28;20042;-80
2023/09/19 08:49:06;;;;;;;2.22;1.10;;;18.00;76.00;;;;;;4951284;28;20062;-79
2023/09/19 08:51:48;;;;;;;2.17;1.20;;;18.00;75.60;;;;;;4958844;28;20117;-78
2023/09/19 08:54:18;;;;;;;4.25;1.38;;;18.00;75.60;;;;;;4960815;28;20106;-79
2023/09/19 08:56:45;;;;;;;2.47;1.15;;;17.90;73.10;;;;;;4959409;28;20027;-79
2023/09/19 08:59:13;;;;;;;2.08;1.42;;;17.90;74.10;;;;;;4961085;28;20027;-80
2023/09/19 09:01:41;;;;;;;4.93;1.60;;;17.90;73.50;;;;;;4946175;28;20031;-78
2023/09/19 09:04:12;;;;;;;4.88;1.45;;;17.80;73.00;;;;;;4963205;28;20091;-79
2023/09/19 09:06:39;;;;;;;3.22;1.40;;;17.80;74.50;;;;;;4959849;28;20050;-78
2023/09/19 09:09:05;;;;;;;3.05;1.13;;;17.80;73.20;;;;;;4961027;28;20379;-81
2023/09/19 09:11:33;;;;;;;2.13;1.17;;;17.80;73.80;;;;;;4960049;28;20023;-80
2023/09/19 09:13:59;;;;;;;3.55;1.20;;;17.90;73.50;;;;;;4943969;28;20046;-82
2023/09/19 09:16:34;;;;;;;2.50;1.33;;;18.00;73.60;;;;;;4960443;28;20063;-80
2023/09/19 09:19:01;;;;;;;2.47;1.05;;;18.00;72.50;;;;;;4959203;28;20031;-81
2023/09/19 09:21:27;;;;;;;1.77;1.10;;;18.00;72.30;;;;;;4961412;28;20023;-80
2023/09/19 09:23:55;;;;;;;4.45;1.10;;;18.10;72.00;;;;;;4960234;28;20419;-81
2023/09/19 09:26:55;;;;;;;1.95;0.88;;;18.20;70.80;;;;;;4959026;28;20047;-78
2023/09/19 09:29:44;;;;;;;1.33;1.00;;;18.60;71.70;;;;;;4917159;28;20050;-81
2023/09/19 09:32:20;;;;;;;2.35;1.30;;;18.90;69.80;;;;;;4960986;28;20019;-80
2023/09/19 09:34:48;;;;;;;1.77;1.20;;;19.00;71.80;;;;;;4961269;28;20028;-82
2023/09/19 09:37:30;;;;;;;2.58;1.02;;;19.10;68.60;;;;;;4944401;28;20027;-80
2023/09/19 09:42:41;;;;;;;1.40;1.00;;;19.40;67.60;;;;;;4961925;28;20031;-80
2023/09/19 09:45:12;;;;;;;3.95;1.10;;;19.70;66.00;;;;;;4963967;28;20364;-80
2023/09/19 09:47:49;;;;;;;1.85;1.25;;;19.60;65.30;;;;;;4969591;28;20027;-79
2023/09/19 09:50:51;;;;;;;4.57;1.10;;;19.20;67.70;;;;;;4960956;28;20031;-81
2023/09/19 09:53:30;;;;;;;2.42;1.13;;;19.10;67.50;;;;;;4958936;28;20533;-80
2023/09/19 09:56:08;;;;;;;1.70;1.17;;;19.10;68.10;;;;;;4960327;28;20632;-80
2023/09/19 09:58:36;;;;;;;2.03;1.05;;;19.00;67.20;;;;;;4955536;28;20027;-79
2023/09/19 10:01:10;;;;;;;1.75;1.00;;;19.00;67.70;;;;;;4972364;28;20029;-78
2023/09/19 10:03:43;;;;;;;1.55;1.15;;;18.80;67.60;;;;;;4972780;28;20034;-80
2023/09/19 10:06:27;;;;;;;1.88;1.08;;;18.80;67.40;;;;;;4967645;28;20122;-80
2023/09/19 10:11:45;;;;;;;2.83;1.17;;;18.70;67.90;;;;;;4965194;28;20023;-78
2023/09/19 10:14:15;;;;;;;1.70;0.90;;;19.00;67.70;;;;;;4963350;28;20031;-79
2023/09/19 10:17:00;;;;;;;1.27;0.95;;;19.30;66.20;;;;;;4962014;28;20027;-80
2023/09/19 10:19:47;;;;;;;1.90;1.10;;;19.70;64.00;;;;;;4962481;28;20026;-80
2023/09/19 10:22:20;;;;;;;3.47;0.80;;;20.00;61.10;;;;;;4967484;28;20069;-78
2023/09/19 10:24:47;;;;;;;2.35;0.82;;;20.10;62.00;;;;;;4964428;28;20065;-79
2023/09/19 10:27:16;;;;;;;4.10;1.27;;;20.30;60.80;;;;;;4961910;28;20041;-79
2023/09/19 10:29:44;;;;;;;0.90;0.70;;;20.10;59.50;;;;;;4948488;28;20451;-80
2023/09/19 10:32:18;;;;;;;3.08;1.20;;;20.30;59.20;;;;;;4963963;28;20033;-81
2023/09/19 10:34:46;;;;;;;1.90;0.98;;;20.60;58.60;;;;;;4949353;28;20085;-80
2023/09/19 10:37:14;;;;;;;1.58;0.90;;;20.60;57.20;;;;;;4963820;28;20072;-80
2023/09/19 10:39:41;;;;;;;2.05;0.93;;;20.40;58.00;;;;;;4962899;28;20028;-79
2023/09/19 10:42:12;;;;;;;3.03;1.20;;;20.50;57.20;;;;;;4962179;28;20027;-79
2023/09/19 10:44:44;;;;;;;3.50;0.77;;;20.60;57.00;;;;;;4963605;28;20426;-79
2023/09/19 10:47:11;;;;;;;2.42;1.02;;;20.50;55.60;;;;;;4968069;28;20039;-79
2023/09/19 10:49:48;;;;;;;3.30;1.10;;;20.10;56.20;;;;;;4964555;28;20445;-80
2023/09/19 10:52:20;;;;;;;1.48;0.90;;;20.00;57.30;;;;;;4966258;28;20436;-82
2023/09/19 10:54:51;;;;;;;1.88;1.00;;;20.00;56.60;;;;;;4963844;28;20023;-80
2023/09/19 10:57:28;;;;;;;2.97;0.88;;;20.10;57.20;;;;;;4961198;28;20023;-79
2023/09/19 11:03:11;;;;;;;2.75;0.90;;;20.90;56.00;;;;;;4953391;29;20438;-79
2023/09/19 11:05:42;;;;;;;3.38;1.25;;;20.90;51.60;;;;;;4952459;29;20422;-80
2023/09/19 11:08:12;;;;;;;3.42;1.25;;;20.90;52.20;;;;;;4952333;28;20098;-78
2023/09/19 11:10:51;;;;;;;3.85;1.25;;;21.10;52.50;;;;;;4960891;28;20447;-78
2023/09/19 11:13:37;;;;;;;1.95;1.10;;;21.10;51.80;;;;;;4963239;28;20391;-80
2023/09/19 11:16:04;;;;;;;;;;;21.40;51.20;;;;;;4962602;28;20054;-78
2023/09/19 11:18:47;;;;;;;5.70;1.48;;;21.90;49.20;;;;;;4945110;28;20330;-79
2023/09/19 11:21:32;;;;;;;1.73;0.98;;;21.60;48.10;;;;;;4961112;28;20108;-78
2023/09/19 11:24:25;;;;;;;3.60;1.13;;;21.70;48.40;;;;;;4963482;28;20452;-78
2023/09/19 11:27:08;;;;;;;2.35;1.25;;;21.90;46.80;;;;;;4962411;28;20045;-77
2023/09/19 11:29:35;;;;;;;2.30;1.40;;;21.90;46.20;;;;;;4961761;28;20047;-78
2023/09/19 11:32:04;;;;;;;1.98;0.98;;;21.80;47.20;;;;;;4960774;28;20623;-77
2023/09/19 11:34:36;;;;;;;2.38;1.13;;;22.00;48.30;;;;;;4952891;28;20453;-81
2023/09/19 11:37:04;;;;;;;1.95;1.10;;;21.80;45.90;;;;;;4951843;28;20471;-75
2023/09/19 11:39:30;;;;;;;3.03;1.77;;;21.30;47.10;;;;;;4951798;28;20031;-77
2023/09/19 11:42:45;;;;;;;4.07;1.10;;;21.10;47.60;;;;;;4957894;29;20031;-76
2023/09/19 11:45:40;;;;;;;4.30;1.40;;;21.10;48.50;;;;;;4952954;29;20024;-76
2023/09/19 11:48:08;;;;;;;2.00;1.10;;;20.80;49.20;;;;;;4952011;28;20372;-81
2023/09/19 11:50:36;;;;;;;1.50;1.13;;;21.00;48.70;;;;;;4936597;28;20202;-82
2023/09/19 11:53:02;;;;;;;2.45;0.93;;;21.30;47.60;;;;;;4952062;28;20049;-79
2023/09/19 11:55:32;;;;;;;3.03;1.35;;;21.90;46.10;;;;;;4952572;28;20023;-77
2023/09/19 11:57:59;;;;;;;3.08;1.38;;;22.20;46.70;;;;;;4952506;28;20111;-77
2023/09/19 12:00:27;;;;;;;4.40;1.60;;;22.50;44.70;;;;;;4959645;28;20031;-77
2023/09/19 12:02:56;;;;;;;1.95;1.52;;;22.60;44.30;;;;;;4952172;28;20024;-78
2023/09/19 12:05:33;;;;;;;2.42;1.40;;;22.60;41.10;;;;;;4952034;28;20034;-77
2023/09/19 12:07:59;;;;;;;3.85;1.30;;;22.60;41.80;;;;;;4952297;29;20038;-77
2023/09/19 12:10:24;;;;;;;3.45;1.10;;;22.40;43.70;;;;;;4952255;28;20023;-75
2023/09/19 12:12:52;;;;;;;3.22;1.30;;;22.00;44.40;;;;;;4952109;28;20038;-77
2023/09/19 12:15:28;;;;;;;3.15;1.58;;;22.20;42.90;;;;;;4951792;28;20026;-79
2023/09/19 12:17:54;;;;;;;2.50;1.10;;;22.30;44.10;;;;;;4951462;28;20034;-79
2023/09/19 12:20:21;;;;;;;3.45;1.38;;;22.00;43.50;;;;;;4951518;28;20031;-79
2023/09/19 12:22:49;;;;;;;4.47;1.60;;;21.60;44.00;;;;;;4952769;28;20361;-78
2023/09/19 12:25:17;;;;;;;2.47;1.15;;;21.50;44.00;;;;;;4937691;29;20497;-78
2023/09/19 12:27:43;;;;;;;2.38;1.48;;;21.20;44.30;;;;;;4952447;28;20075;-79
2023/09/19 12:30:14;;;;;;;1.50;1.30;;;21.40;45.00;;;;;;4952293;28;20452;-77
2023/09/19 12:32:41;;;;;;;2.95;1.80;;;21.50;44.90;;;;;;4951718;29;20475;-77
2023/09/19 12:35:10;;;;;;;1.52;1.13;;;21.70;44.80;;;;;;4951630;28;20019;-77
2023/09/19 12:37:48;;;;;;;4.18;1.50;;;22.00;42.60;;;;;;4951378;29;20081;-77
2023/09/19 12:40:17;;;;;;;4.35;1.60;;;22.20;44.10;;;;;;4952762;29;20024;-77
2023/09/19 12:42:45;;;;;;;2.90;1.30;;;22.60;43.30;;;;;;4951031;28;20365;-78
2023/09/19 12:45:15;;;;;;;3.72;1.70;;;23.10;41.60;;;;;;4950709;28;20038;-77
2023/09/19 12:47:52;;;;;;;3.15;1.60;;;23.70;39.30;;;;;;4935704;29;20043;-77
2023/09/19 12:50:18;;;;;;;2.80;1.27;;;23.90;39.00;;;;;;4951459;29;20033;-77
2023/09/19 12:52:51;;;;;;;3.45;1.70;;;24.10;39.70;;;;;;4935371;28;20038;-77
2023/09/19 12:55:24;;;;;;;5.47;1.90;;;24.30;37.10;;;;;;4951200;28;20039;-77
2023/09/19 12:58:03;;;;;;;3.60;1.27;;;24.60;37.20;;;;;;4951285;29;20067;-77
2023/09/19 13:00:40;;;;;;;1.67;1.33;;;24.60;37.20;;;;;;4956628;29;20149;-77
2023/09/19 13:03:20;;;;;;;2.63;1.38;;;24.70;36.50;;;;;;4951699;29;20024;-77
2023/09/19 13:05:53;;;;;;;2.67;1.50;;;24.60;36.80;;;;;;4951023;29;20027;-77
2023/09/19 13:08:32;;;;;;;3.92;1.48;;;24.20;36.50;;;;;;4950922;29;20077;-77
2023/09/19 13:11:09;;;;;;;2.22;1.70;;;24.20;38.20;;;;;;4950940;29;20483;-77
2023/09/19 13:13:54;;;;;;;2.47;1.40;;;24.10;34.60;;;;;;4951212;28;20035;-75